Time;durP1;ratioP1;P1;durP2;ratioP2;P2;SDS_P1;SDS_P2;PMS_P1;PMS_P2;Temp;Humidity;BMP_temperature;BMP_pressure;BME280_temperature;BME280_humidity;BME280_pressure;Samples;Min_cycle;Max_cycle;Signal;HPM_P1;HPM_P2
2022/05/13 00:00:33;;;;;;;0.47;0.30;;;21.20;52.40;;;;;;4973200;28;20093;-15
2022/05/13 00:02:59;;;;;;;0.70;0.40;;;21.20;52.50;;;;;;4972603;28;20059;-16
2022/05/13 00:05:24;;;;;;;0.55;0.32;;;21.30;52.60;;;;;;4974592;28;20418;-15
2022/05/13 00:07:50;;;;;;;0.77;0.40;;;21.20;52.60;;;;;;4975462;28;20043;-17
2022/05/13 00:10:16;;;;;;;0.90;0.40;;;21.20;52.60;;;;;;4975944;28;20122;-15
2022/05/13 00:12:42;;;;;;;0.80;0.40;;;21.30;52.50;;;;;;4976480;28;20043;-15
2022/05/13 00:15:10;;;;;;;0.45;0.40;;;21.30;52.50;;;;;;4975772;28;20493;-15
2022/05/13 00:17:36;;;;;;;1.98;0.70;;;21.30;52.60;;;;;;4975569;28;20043;-15
2022/05/13 00:20:03;;;;;;;1.88;0.73;;;21.30;52.60;;;;;;4974625;28;20042;-15
2022/05/13 00:22:28;;;;;;;0.88;0.40;;;21.30;52.60;;;;;;4976202;28;20061;-15
2022/05/13 00:24:54;;;;;;;0.82;0.40;;;21.30;52.70;;;;;;4975700;28;20039;-16
2022/05/13 00:27:20;;;;;;;1.52;0.43;;;21.20;52.70;;;;;;4973952;28;20050;-15
2022/05/13 00:29:46;;;;;;;0.63;0.40;;;21.20;52.70;;;;;;4969501;28;20144;-15
2022/05/13 00:32:12;;;;;;;1.27;0.40;;;21.20;52.80;;;;;;4973313;28;20245;-15
2022/05/13 00:34:37;;;;;;;0.77;0.50;;;21.20;52.80;;;;;;4974896;28;20050;-15
2022/05/13 00:37:03;;;;;;;0.85;0.70;;;21.10;53.00;;;;;;4974237;28;20458;-15
2022/05/13 00:39:28;;;;;;;0.52;0.30;;;21.10;53.10;;;;;;4974952;28;20053;-15
2022/05/13 00:41:54;;;;;;;0.77;0.60;;;21.10;53.00;;;;;;4975510;28;20046;-15
2022/05/13 00:44:21;;;;;;;0.65;0.47;;;21.20;53.00;;;;;;4974394;28;20043;-15
2022/05/13 00:46:47;;;;;;;0.70;0.40;;;21.20;53.10;;;;;;4975039;28;20039;-15
2022/05/13 00:49:13;;;;;;;0.90;0.40;;;21.10;53.10;;;;;;4975534;28;20039;-15
2022/05/13 00:51:42;;;;;;;0.60;0.40;;;21.10;53.10;;;;;;4974106;28;20106;-15
2022/05/13 00:54:08;;;;;;;0.55;0.50;;;21.10;53.20;;;;;;4974292;28;20074;-15
2022/05/13 00:56:34;;;;;;;0.50;0.32;;;21.10;53.20;;;;;;4975000;28;20057;-15
2022/05/13 00:59:01;;;;;;;0.68;0.30;;;21.10;53.30;;;;;;4975304;28;20126;-15
2022/05/13 01:01:28;;;;;;;0.47;0.35;;;21.10;53.20;;;;;;4974045;28;20062;-16
2022/05/13 01:03:54;;;;;;;0.55;0.43;;;21.10;53.30;;;;;;4976084;28;20134;-17
2022/05/13 01:06:21;;;;;;;0.82;0.50;;;21.10;53.30;;;;;;4974017;28;20043;-15
2022/05/13 01:08:47;;;;;;;1.15;0.55;;;21.10;53.20;;;;;;4977861;28;20043;-15
2022/05/13 01:11:15;;;;;;;0.77;0.43;;;21.10;53.20;;;;;;4976746;28;20051;-14
2022/05/13 01:13:44;;;;;;;0.80;0.28;;;21.10;53.30;;;;;;4947514;28;20044;-15
2022/05/13 01:16:09;;;;;;;0.90;0.57;;;21.10;53.30;;;;;;4974126;28;20125;-15
2022/05/13 01:18:37;;;;;;;0.40;0.38;;;21.10;53.20;;;;;;4960204;28;20125;-15
2022/05/13 01:21:04;;;;;;;0.75;0.50;;;21.10;53.40;;;;;;4959502;28;20051;-15
2022/05/13 01:23:35;;;;;;;1.10;0.80;;;21.10;53.50;;;;;;4977575;28;20047;-16
2022/05/13 01:26:05;;;;;;;0.43;0.20;;;21.00;53.30;;;;;;4977413;28;20066;-16
2022/05/13 01:28:38;;;;;;;0.50;0.40;;;21.00;53.30;;;;;;4979084;28;20102;-15
2022/05/13 01:31:07;;;;;;;0.60;0.20;;;21.10;53.40;;;;;;4977866;28;20085;-15
2022/05/13 01:33:33;;;;;;;0.93;0.60;;;21.00;53.30;;;;;;4979118;28;20045;-15
2022/05/13 01:36:00;;;;;;;0.85;0.40;;;21.00;53.40;;;;;;4977988;28;20042;-16
2022/05/13 01:38:28;;;;;;;0.57;0.38;;;21.00;53.40;;;;;;4978927;28;20118;-15
2022/05/13 01:40:54;;;;;;;1.50;0.60;;;21.00;53.20;;;;;;4979067;28;20046;-15
2022/05/13 01:43:20;;;;;;;0.52;0.40;;;21.00;53.40;;;;;;4977526;28;20534;-16
2022/05/13 01:45:46;;;;;;;0.40;0.30;;;21.00;54.00;;;;;;4978223;28;20035;-15
2022/05/13 01:48:11;;;;;;;0.40;0.30;;;21.00;53.30;;;;;;4978334;28;20042;-15
2022/05/13 01:50:37;;;;;;;0.40;0.40;;;21.00;53.40;;;;;;4977578;28;20045;-15
2022/05/13 01:53:03;;;;;;;0.35;0.30;;;21.00;53.40;;;;;;4976868;28;20046;-15
2022/05/13 01:55:29;;;;;;;0.55;0.40;;;21.00;53.40;;;;;;4978134;28;20039;-17
2022/05/13 01:57:54;;;;;;;0.73;0.47;;;21.00;53.40;;;;;;4978723;28;20066;-15
2022/05/13 02:00:21;;;;;;;1.05;0.50;;;21.00;53.60;;;;;;4978024;28;20050;-14
2022/05/13 02:05:31;;;;;;;0.60;0.35;;;20.90;53.60;;;;;;4971159;28;20089;-15
2022/05/13 02:07:57;;;;;;;0.40;0.40;;;21.00;53.50;;;;;;4978498;28;20035;-15
2022/05/13 02:10:23;;;;;;;0.47;0.40;;;21.00;53.50;;;;;;4977338;28;20103;-16
2022/05/13 02:12:49;;;;;;;0.70;0.50;;;21.00;53.60;;;;;;4978445;28;20417;-15
2022/05/13 02:15:14;;;;;;;0.90;0.40;;;21.00;53.50;;;;;;4977619;28;20058;-15
2022/05/13 02:17:40;;;;;;;0.40;0.40;;;21.00;53.50;;;;;;4977737;28;20043;-15
2022/05/13 02:20:06;;;;;;;0.85;0.30;;;21.00;53.60;;;;;;4976877;28;20031;-15
2022/05/13 02:22:32;;;;;;;0.43;0.30;;;21.00;53.60;;;;;;4978053;28;20042;-15
2022/05/13 02:24:57;;;;;;;0.50;0.30;;;21.00;53.60;;;;;;4976387;28;20038;-15
2022/05/13 02:27:23;;;;;;;0.20;0.17;;;21.00;53.60;;;;;;4977558;28;20046;-15
2022/05/13 02:29:49;;;;;;;0.52;0.38;;;20.90;53.70;;;;;;4977854;28;20039;-15
2022/05/13 02:32:15;;;;;;;0.50;0.40;;;20.90;53.50;;;;;;4976912;28;20042;-15
2022/05/13 02:34:40;;;;;;;0.93;0.50;;;20.90;53.70;;;;;;4978152;28;20047;-16
2022/05/13 02:37:06;;;;;;;0.40;0.22;;;20.90;53.60;;;;;;4976139;28;20047;-15
2022/05/13 02:39:32;;;;;;;1.30;0.50;;;20.90;53.70;;;;;;4977252;28;20077;-15
2022/05/13 02:41:57;;;;;;;0.93;0.30;;;20.90;53.50;;;;;;4977365;28;20051;-15
2022/05/13 02:44:23;;;;;;;0.45;0.30;;;20.90;53.50;;;;;;4977174;28;20050;-15
2022/05/13 02:46:49;;;;;;;0.50;0.50;;;20.90;53.70;;;;;;4977133;28;20061;-16
2022/05/13 02:49:14;;;;;;;0.60;0.40;;;20.90;53.60;;;;;;4977310;28;20039;-14
2022/05/13 02:51:40;;;;;;;0.70;0.40;;;20.90;53.50;;;;;;4977710;28;20046;-15
2022/05/13 02:54:07;;;;;;;0.50;0.30;;;20.90;53.60;;;;;;4976551;28;20047;-15
2022/05/13 02:56:33;;;;;;;1.92;0.30;;;20.80;53.60;;;;;;4977642;28;20073;-15
2022/05/13 02:58:59;;;;;;;0.68;0.38;;;20.90;53.60;;;;;;4976783;28;20039;-15
2022/05/13 03:01:25;;;;;;;0.70;0.40;;;20.80;53.60;;;;;;4976924;28;20063;-17
2022/05/13 03:03:50;;;;;;;0.65;0.40;;;20.80;53.60;;;;;;4976331;28;20042;-15
2022/05/13 03:06:17;;;;;;;0.43;0.30;;;20.80;53.70;;;;;;4976896;28;20113;-15
2022/05/13 03:08:43;;;;;;;0.35;0.32;;;20.90;53.70;;;;;;4976841;28;20093;-15
2022/05/13 03:11:08;;;;;;;0.90;0.40;;;20.80;53.60;;;;;;4976853;28;20047;-16
2022/05/13 03:13:34;;;;;;;0.77;0.30;;;20.90;53.70;;;;;;4975756;28;20094;-15
2022/05/13 03:16:04;;;;;;;0.45;0.30;;;20.80;53.60;;;;;;4976650;28;20054;-15
2022/05/13 03:18:30;;;;;;;0.40;0.30;;;20.80;53.70;;;;;;4975478;28;20047;-15
2022/05/13 03:20:55;;;;;;;0.80;0.32;;;20.90;53.70;;;;;;4976761;28;20081;-15
2022/05/13 03:23:21;;;;;;;1.00;0.45;;;20.80;53.70;;;;;;4976376;28;20535;-15
2022/05/13 03:25:47;;;;;;;0.30;0.20;;;20.80;53.80;;;;;;4976353;28;20110;-15
2022/05/13 03:28:12;;;;;;;0.57;0.50;;;20.80;53.70;;;;;;4976256;28;20126;-15
2022/05/13 03:30:38;;;;;;;0.55;0.30;;;20.80;53.70;;;;;;4991784;28;20047;-15
2022/05/13 03:33:04;;;;;;;0.55;0.40;;;20.80;53.50;;;;;;4975185;28;20073;-15
2022/05/13 03:35:29;;;;;;;0.80;0.60;;;20.80;53.70;;;;;;4976385;28;20061;-14
2022/05/13 03:37:55;;;;;;;0.52;0.30;;;20.80;53.80;;;;;;4976210;28;20129;-14
2022/05/13 03:40:21;;;;;;;0.82;0.30;;;20.80;53.80;;;;;;4976392;28;20061;-15
2022/05/13 03:42:47;;;;;;;0.68;0.43;;;20.80;54.10;;;;;;4976180;28;20130;-15
2022/05/13 03:45:13;;;;;;;0.65;0.30;;;20.80;54.00;;;;;;4974211;28;20069;-15
2022/05/13 03:47:39;;;;;;;1.55;0.60;;;20.70;53.80;;;;;;4959463;28;20130;-16
2022/05/13 03:50:05;;;;;;;1.30;0.30;;;20.80;54.20;;;;;;4976900;28;20074;-15
2022/05/13 03:52:31;;;;;;;0.52;0.40;;;20.80;54.20;;;;;;4975580;28;20130;-15
2022/05/13 03:54:57;;;;;;;0.60;0.22;;;20.80;54.50;;;;;;4976824;28;20105;-15
2022/05/13 03:57:22;;;;;;;0.63;0.30;;;20.80;54.00;;;;;;4975334;28;20526;-15
2022/05/13 03:59:48;;;;;;;0.60;0.40;;;20.70;54.10;;;;;;4976549;28;20060;-15
2022/05/13 04:02:14;;;;;;;1.52;0.40;;;20.70;54.10;;;;;;4976104;28;20058;-15
2022/05/13 04:10:08;;;;;;;;;;;20.80;54.30;;;;;;4976567;28;20042;-15
2022/05/13 04:18:03;;;;;;;1.13;0.25;;;20.70;54.40;;;;;;4975942;28;20050;-15
2022/05/13 04:20:29;;;;;;;0.73;0.40;;;20.70;54.40;;;;;;4975981;28;20054;-15
2022/05/13 04:22:54;;;;;;;0.52;0.22;;;20.70;54.10;;;;;;4976222;28;20042;-15
2022/05/13 04:25:20;;;;;;;0.60;0.30;;;20.70;54.20;;;;;;4975100;28;20074;-14
2022/05/13 04:27:46;;;;;;;0.63;0.50;;;20.70;54.30;;;;;;4975027;28;20039;-16
2022/05/13 04:30:12;;;;;;;0.57;0.28;;;20.70;54.10;;;;;;4974690;28;20066;-16
2022/05/13 04:32:38;;;;;;;0.32;0.30;;;20.70;54.30;;;;;;4975618;28;20122;-15
2022/05/13 04:35:04;;;;;;;0.90;0.40;;;20.70;54.00;;;;;;4976270;28;20082;-15
2022/05/13 04:37:29;;;;;;;0.65;0.47;;;20.70;54.10;;;;;;4975592;28;20084;-15
2022/05/13 04:39:55;;;;;;;0.47;0.32;;;20.70;54.30;;;;;;4975596;28;20047;-16
2022/05/13 04:45:06;;;;;;;0.32;0.28;;;20.60;54.20;;;;;;4979988;28;20089;-15
2022/05/13 04:50:16;;;;;;;;;;;20.70;54.10;;;;;;4979293;28;20052;-15
2022/05/13 04:52:41;;;;;;;0.50;0.35;;;20.70;54.10;;;;;;4979904;28;19981;-15
2022/05/13 04:55:08;;;;;;;0.45;0.30;;;20.70;54.00;;;;;;4980024;28;20408;-17
2022/05/13 04:57:33;;;;;;;0.20;0.20;;;20.70;54.10;;;;;;4631151;28;10000143;-16
2022/05/13 04:59:59;;;;;;;0.98;0.60;;;20.70;54.10;;;;;;4990389;28;20519;-15
2022/05/13 05:02:25;;;;;;;1.70;0.40;;;20.70;54.00;;;;;;4975667;28;20050;-15
2022/05/13 05:04:50;;;;;;;0.30;0.28;;;20.60;54.30;;;;;;4975813;28;20045;-16
2022/05/13 05:07:16;;;;;;;1.85;0.40;;;20.70;54.80;;;;;;4975425;28;20093;-15
2022/05/13 05:09:41;;;;;;;0.60;0.40;;;20.60;54.30;;;;;;4975148;28;20046;-17
2022/05/13 05:12:09;;;;;;;0.47;0.30;;;20.60;54.20;;;;;;4975817;28;20053;-16
2022/05/13 05:14:34;;;;;;;1.02;0.43;;;20.50;54.40;;;;;;4975009;28;20479;-16
2022/05/13 05:17:00;;;;;;;1.60;0.40;;;20.60;54.50;;;;;;4975219;28;20488;-15
2022/05/13 05:19:26;;;;;;;0.35;0.35;;;20.60;54.40;;;;;;4975101;28;20047;-15
2022/05/13 05:21:51;;;;;;;0.30;0.30;;;20.60;54.30;;;;;;4975122;28;20059;-16
2022/05/13 05:24:17;;;;;;;0.30;0.30;;;20.60;54.40;;;;;;4982263;28;20515;-15
2022/05/13 05:26:42;;;;;;;0.68;0.30;;;20.60;54.00;;;;;;4977748;28;20061;-15
2022/05/13 05:29:08;;;;;;;0.30;0.20;;;20.50;54.00;;;;;;4975723;28;20031;-15
2022/05/13 05:31:34;;;;;;;0.52;0.40;;;20.60;54.30;;;;;;4975020;28;20042;-16
2022/05/13 05:33:59;;;;;;;0.50;0.30;;;20.60;54.20;;;;;;4973519;28;20050;-15
2022/05/13 05:36:25;;;;;;;0.93;0.30;;;20.50;54.30;;;;;;4974368;28;20266;-15
2022/05/13 05:38:50;;;;;;;0.82;0.40;;;20.50;54.00;;;;;;4973786;28;20436;-15
2022/05/13 05:41:16;;;;;;;0.50;0.40;;;20.50;54.20;;;;;;4974211;28;20054;-15
2022/05/13 05:43:43;;;;;;;0.57;0.40;;;20.50;54.20;;;;;;4975201;28;20748;-15
2022/05/13 05:46:08;;;;;;;1.25;0.30;;;20.50;54.20;;;;;;4974963;28;20047;-15
2022/05/13 05:48:34;;;;;;;0.43;0.20;;;20.50;54.20;;;;;;4974331;28;20049;-16
2022/05/13 05:50:59;;;;;;;0.70;0.30;;;20.60;54.50;;;;;;4975420;28;20083;-16
2022/05/13 05:58:57;;;;;;;1.00;0.50;;;20.50;54.60;;;;;;4973696;28;20137;-16
2022/05/13 06:01:22;;;;;;;0.85;0.60;;;20.50;54.10;;;;;;4973036;28;20042;-16
2022/05/13 06:03:48;;;;;;;2.13;1.10;;;20.50;54.00;;;;;;4974497;28;20051;-15
2022/05/13 06:06:13;;;;;;;2.47;1.23;;;20.50;53.00;;;;;;4972164;28;20085;-16
2022/05/13 06:08:40;;;;;;;2.17;1.13;;;20.20;52.40;;;;;;4973091;28;20042;-15
2022/05/13 06:11:06;;;;;;;5.45;1.75;;;19.80;53.30;;;;;;4973771;28;20137;-16
2022/05/13 06:13:31;;;;;;;2.67;1.30;;;19.60;53.80;;;;;;4974130;28;20074;-17
2022/05/13 06:15:57;;;;;;;4.10;1.30;;;19.50;54.20;;;;;;4972712;28;20054;-16
2022/05/13 06:18:23;;;;;;;6.35;1.75;;;19.40;54.60;;;;;;4971959;28;20127;-16
2022/05/13 06:20:48;;;;;;;2.80;1.20;;;19.30;54.60;;;;;;4973520;28;20062;-18
2022/05/13 06:23:14;;;;;;;4.85;1.67;;;19.20;55.00;;;;;;4973934;28;20055;-16
2022/05/13 06:25:39;;;;;;;1.73;1.10;;;19.10;55.40;;;;;;4966787;28;20074;-16
2022/05/13 06:28:05;;;;;;;4.53;1.35;;;19.00;56.00;;;;;;4979892;28;20053;-15
2022/05/13 06:30:33;;;;;;;3.72;1.23;;;18.90;56.40;;;;;;4973538;28;20421;-16
2022/05/13 06:32:58;;;;;;;6.40;1.70;;;18.90;56.80;;;;;;4972744;28;20035;-15
2022/05/13 06:35:25;;;;;;;2.22;1.02;;;18.80;57.20;;;;;;4975268;28;20133;-16
2022/05/13 06:37:53;;;;;;;2.28;1.35;;;18.80;57.30;;;;;;4977510;28;20039;-16
2022/05/13 06:40:19;;;;;;;2.92;1.50;;;18.70;57.60;;;;;;4977193;28;20043;-16
2022/05/13 06:42:45;;;;;;;3.88;1.02;;;18.70;58.10;;;;;;4976665;28;20047;-15
2022/05/13 06:45:11;;;;;;;2.38;1.17;;;18.60;58.70;;;;;;4977163;28;20527;-16
2022/05/13 06:47:37;;;;;;;5.57;1.98;;;18.60;58.80;;;;;;4976181;28;20427;-15
2022/05/13 06:50:04;;;;;;;2.78;1.30;;;18.50;59.70;;;;;;4977648;28;20054;-16
2022/05/13 06:52:29;;;;;;;2.08;1.10;;;18.40;59.10;;;;;;4976907;28;20043;-16
2022/05/13 06:54:55;;;;;;;4.63;1.40;;;18.50;59.20;;;;;;4977249;28;20564;-16
2022/05/13 06:57:21;;;;;;;5.90;1.30;;;18.40;59.50;;;;;;4976036;28;20146;-17
2022/05/13 06:59:46;;;;;;;4.25;1.70;;;18.30;59.50;;;;;;4976260;28;20047;-16
2022/05/13 07:02:12;;;;;;;3.50;1.20;;;18.40;59.80;;;;;;4977446;28;20042;-16
2022/05/13 07:04:38;;;;;;;3.03;1.05;;;18.40;59.80;;;;;;4975563;28;20057;-19
2022/05/13 07:07:03;;;;;;;2.83;1.33;;;18.40;60.00;;;;;;4972706;28;20512;-16
2022/05/13 07:09:29;;;;;;;2.88;0.90;;;18.30;60.10;;;;;;4968608;28;20055;-16
2022/05/13 07:11:55;;;;;;;2.45;1.13;;;18.40;60.20;;;;;;4975066;28;20046;-16
2022/05/13 07:14:20;;;;;;;3.08;0.95;;;18.40;59.90;;;;;;4991249;28;20451;-16
2022/05/13 07:16:46;;;;;;;3.65;1.15;;;18.50;59.80;;;;;;4977000;28;20053;-16
2022/05/13 07:19:12;;;;;;;2.22;1.00;;;18.60;59.90;;;;;;4975417;28;20546;-18
2022/05/13 07:21:37;;;;;;;4.55;1.10;;;18.60;59.80;;;;;;4975165;28;20073;-18
2022/05/13 07:24:03;;;;;;;2.40;0.70;;;18.60;59.80;;;;;;4975361;28;20042;-16
2022/05/13 07:26:29;;;;;;;1.40;0.95;;;18.60;59.70;;;;;;4974947;28;20826;-15
2022/05/13 07:28:54;;;;;;;2.60;1.00;;;18.60;59.70;;;;;;4975748;28;20043;-17
2022/05/13 07:31:20;;;;;;;1.75;0.68;;;18.60;59.70;;;;;;4976940;28;20423;-16
2022/05/13 07:33:46;;;;;;;2.45;0.75;;;18.60;59.90;;;;;;4976198;28;20047;-17
2022/05/13 07:36:11;;;;;;;3.85;0.88;;;18.60;59.70;;;;;;4975956;28;20118;-16
2022/05/13 07:41:16;;;;;;;2.85;1.00;;;18.60;59.80;;;;;;4975408;28;20101;-16
2022/05/13 07:41:24;;;;;;;3.60;0.80;;;18.60;59.60;;;;;;4976187;28;20292;-17
2022/05/13 07:43:50;;;;;;;2.40;0.88;;;18.70;59.50;;;;;;4974200;28;20046;-17
2022/05/13 07:46:15;;;;;;;1.45;0.68;;;18.70;59.60;;;;;;4975607;28;20062;-17
2022/05/13 07:48:41;;;;;;;2.00;0.70;;;18.70;59.40;;;;;;4975693;28;20051;-15
2022/05/13 07:51:07;;;;;;;2.17;0.75;;;18.70;59.40;;;;;;4974957;28;20035;-15
2022/05/13 07:53:33;;;;;;;1.35;0.80;;;18.70;59.50;;;;;;4973187;28;20046;-15
2022/05/13 07:55:59;;;;;;;2.47;0.70;;;18.70;60.30;;;;;;4975528;28;20074;-20
2022/05/13 07:58:24;;;;;;;2.58;1.05;;;18.60;59.80;;;;;;4975531;28;20057;-19
2022/05/13 08:00:50;;;;;;;1.23;0.52;;;18.70;59.70;;;;;;4976435;28;20042;-18
2022/05/13 08:03:16;;;;;;;1.80;0.90;;;18.60;59.60;;;;;;4975704;28;20496;-18
2022/05/13 08:05:47;;;;;;;2.78;1.02;;;18.60;59.80;;;;;;4975737;28;21233;-18
2022/05/13 08:08:18;;;;;;;1.58;0.75;;;18.70;59.60;;;;;;4975824;28;20045;-19
2022/05/13 08:10:52;;;;;;;2.97;0.82;;;18.70;60.00;;;;;;4975500;28;20089;-18
2022/05/13 08:13:18;;;;;;;1.52;0.70;;;18.70;59.80;;;;;;4968557;28;20034;-18
2022/05/13 08:15:44;;;;;;;3.28;0.95;;;18.70;59.80;;;;;;4974981;28;20122;-18
2022/05/13 08:18:09;;;;;;;2.03;0.85;;;18.60;59.70;;;;;;4978126;28;20069;-19
2022/05/13 08:20:35;;;;;;;2.55;0.85;;;18.60;59.80;;;;;;4978932;28;20408;-17
2022/05/13 08:23:01;;;;;;;1.60;0.80;;;18.60;59.70;;;;;;4979975;28;20054;-20
2022/05/13 08:25:26;;;;;;;3.13;0.90;;;18.60;59.70;;;;;;4979511;28;20035;-17
2022/05/13 08:27:52;;;;;;;1.80;0.80;;;18.60;59.90;;;;;;4976580;28;20129;-18
2022/05/13 08:30:18;;;;;;;2.08;1.00;;;18.70;59.90;;;;;;4965338;28;20050;-17
2022/05/13 08:32:44;;;;;;;2.72;0.68;;;18.80;59.50;;;;;;4964189;28;20117;-19
2022/05/13 08:35:10;;;;;;;1.20;0.73;;;18.70;60.40;;;;;;4963088;28;20141;-17
2022/05/13 08:37:43;;;;;;;2.55;0.63;;;18.80;59.50;;;;;;4964209;28;20046;-17
2022/05/13 08:40:13;;;;;;;1.52;0.60;;;18.90;59.40;;;;;;4964671;28;20191;-18
2022/05/13 08:42:45;;;;;;;2.30;0.80;;;18.90;59.30;;;;;;4963112;28;20540;-17
2022/05/13 08:45:10;;;;;;;0.93;0.47;;;18.90;59.00;;;;;;4963910;28;20092;-17
2022/05/13 08:47:52;;;;;;;1.48;0.43;;;19.00;59.00;;;;;;4961847;28;20050;-17
2022/05/13 08:50:49;;;;;;;1.67;0.57;;;18.90;58.70;;;;;;4964200;28;20097;-16
2022/05/13 08:53:29;;;;;;;1.67;0.70;;;19.00;58.30;;;;;;4955943;28;20062;-17
2022/05/13 08:56:06;;;;;;;3.50;0.85;;;19.00;57.80;;;;;;4962497;28;20059;-17
2022/05/13 08:58:43;;;;;;;1.98;0.60;;;19.10;57.40;;;;;;4962522;28;20062;-18
2022/05/13 09:01:11;;;;;;;1.38;0.52;;;19.20;56.80;;;;;;4963760;28;20166;-16
2022/05/13 09:03:40;;;;;;;1.25;0.60;;;19.30;56.50;;;;;;4947092;28;20058;-17
2022/05/13 09:06:31;;;;;;;1.05;0.60;;;19.30;56.30;;;;;;4963530;28;20051;-17
2022/05/13 09:08:58;;;;;;;0.80;0.43;;;19.30;56.30;;;;;;4965009;28;20050;-17
2022/05/13 09:11:47;;;;;;;2.67;0.73;;;19.40;56.10;;;;;;4963105;28;20104;-18
2022/05/13 09:14:37;;;;;;;1.77;0.57;;;19.40;55.90;;;;;;4963768;28;20058;-17
2022/05/13 09:17:24;;;;;;;1.40;0.60;;;19.50;55.90;;;;;;4962566;28;20076;-17
2022/05/13 09:20:10;;;;;;;0.85;0.45;;;19.60;55.70;;;;;;4963250;28;20145;-17
2022/05/13 09:22:58;;;;;;;2.28;0.60;;;19.60;55.50;;;;;;4963066;28;20059;-18
2022/05/13 09:25:26;;;;;;;1.08;0.52;;;19.60;55.30;;;;;;4963423;28;20057;-18
2022/05/13 09:28:09;;;;;;;1.95;0.80;;;19.60;55.20;;;;;;4962722;28;20055;-17
2022/05/13 09:30:42;;;;;;;1.75;0.52;;;19.70;55.20;;;;;;4963700;28;20054;-18
2022/05/13 09:33:24;;;;;;;1.02;0.32;;;19.70;55.00;;;;;;4964203;28;20523;-17
2022/05/13 09:35:55;;;;;;;0.80;0.60;;;19.80;54.70;;;;;;4962594;28;20715;-17
2022/05/13 09:38:25;;;;;;;1.27;0.63;;;19.90;54.60;;;;;;4962480;28;20557;-17
2022/05/13 09:41:05;;;;;;;0.73;0.43;;;20.00;54.60;;;;;;4961182;28;20059;-19
2022/05/13 09:43:51;;;;;;;1.70;0.50;;;20.00;54.50;;;;;;4965165;28;20086;-17
2022/05/13 09:46:37;;;;;;;1.85;0.50;;;20.10;54.30;;;;;;4977397;28;20134;-19
2022/05/13 09:49:18;;;;;;;2.38;0.52;;;20.20;54.00;;;;;;4977095;28;20035;-17
2022/05/13 09:52:04;;;;;;;1.30;0.68;;;20.20;53.90;;;;;;4977167;28;20419;-18
2022/05/13 09:54:31;;;;;;;0.82;0.40;;;20.30;53.90;;;;;;4970787;28;20071;-17
2022/05/13 09:57:14;;;;;;;0.73;0.50;;;20.30;53.70;;;;;;4978400;28;20459;-17
2022/05/13 10:00:03;;;;;;;0.63;0.40;;;20.40;53.60;;;;;;4977781;28;20035;-17
2022/05/13 10:02:29;;;;;;;1.58;0.60;;;20.50;53.40;;;;;;4975407;28;20464;-17
2022/05/13 10:05:16;;;;;;;1.70;0.50;;;20.40;53.40;;;;;;4977195;28;20039;-18
2022/05/13 10:08:05;;;;;;;0.65;0.30;;;20.40;53.50;;;;;;4976713;28;20113;-16
2022/05/13 10:13:59;;;;;;;1.38;0.70;;;20.50;53.30;;;;;;4973104;28;20097;-18
2022/05/13 10:16:42;;;;;;;0.55;0.35;;;20.50;53.30;;;;;;4974219;28;20043;-17
2022/05/13 10:19:25;;;;;;;1.27;0.73;;;20.50;53.10;;;;;;4992770;28;20039;-19
2022/05/13 10:22:28;;;;;;;1.27;0.68;;;20.50;53.20;;;;;;4961045;28;20086;-17
2022/05/13 10:25:16;;;;;;;0.52;0.35;;;20.50;53.10;;;;;;4976861;28;20082;-17
2022/05/13 10:27:48;;;;;;;0.60;0.40;;;20.60;53.10;;;;;;4975911;28;20129;-14
2022/05/13 10:30:57;;;;;;;0.40;0.20;;;20.60;53.10;;;;;;4976845;28;20081;-15
2022/05/13 10:33:52;;;;;;;2.28;0.50;;;20.60;53.00;;;;;;4971123;28;20043;-15
2022/05/13 10:36:20;;;;;;;;;;;20.60;53.10;;;;;;4976802;28;20047;-15
2022/05/13 10:38:48;;;;;;;1.02;0.43;;;20.60;53.00;;;;;;4977207;28;19914;-15
2022/05/13 10:41:33;;;;;;;0.85;0.47;;;20.60;53.10;;;;;;4975825;28;20049;-14
2022/05/13 10:44:11;;;;;;;0.35;0.30;;;20.50;53.20;;;;;;4977162;28;20043;-15
2022/05/13 10:46:45;;;;;;;1.02;0.52;;;20.60;53.20;;;;;;4976022;28;20427;-15
2022/05/13 10:49:10;;;;;;;0.57;0.22;;;20.60;53.10;;;;;;4977090;28;20047;-15
2022/05/13 10:52:01;;;;;;;0.85;0.30;;;20.60;53.20;;;;;;4976599;28;20042;-16
2022/05/13 10:54:39;;;;;;;0.28;0.20;;;20.70;53.10;;;;;;4975526;28;20512;-15
2022/05/13 10:57:33;;;;;;;0.50;0.40;;;20.60;53.30;;;;;;4957520;28;20035;-16
2022/05/13 10:59:59;;;;;;;0.40;0.40;;;20.60;53.20;;;;;;4957545;28;20386;-14
2022/05/13 11:03:02;;;;;;;0.70;0.28;;;20.70;53.10;;;;;;4957905;28;20043;-16
2022/05/13 11:05:49;;;;;;;0.70;0.43;;;20.70;53.00;;;;;;4957389;28;20392;-15
2022/05/13 11:08:18;;;;;;;0.73;0.40;;;20.70;52.90;;;;;;4940945;28;20481;-15
2022/05/13 11:10:55;;;;;;;0.28;0.20;;;20.70;52.80;;;;;;4965835;28;20122;-14
2022/05/13 11:13:43;;;;;;;1.15;0.25;;;20.70;52.90;;;;;;4976572;28;20114;-14
2022/05/13 11:16:27;;;;;;;0.43;0.20;;;20.70;53.00;;;;;;4976548;28;20042;-15
2022/05/13 11:18:54;;;;;;;;;;;20.60;53.00;;;;;;4976665;28;20049;-14
2022/05/13 11:21:40;;;;;;;1.48;0.43;;;20.60;53.10;;;;;;4976970;28;20009;-17
2022/05/13 11:27:21;;;;;;;0.40;0.22;;;20.60;53.10;;;;;;4975221;28;20050;-15
2022/05/13 11:29:51;;;;;;;0.82;0.30;;;20.70;53.10;;;;;;4974741;28;20055;-15
2022/05/13 11:32:38;;;;;;;0.43;0.30;;;20.70;53.00;;;;;;4974833;28;20043;-14
2022/05/13 11:35:16;;;;;;;0.30;0.30;;;20.70;52.90;;;;;;4975430;28;20047;-15
2022/05/13 11:37:42;;;;;;;0.52;0.30;;;20.70;52.90;;;;;;4974794;28;20047;-15
2022/05/13 11:40:28;;;;;;;0.40;0.30;;;20.70;53.00;;;;;;4958795;28;20109;-17
2022/05/13 11:43:21;;;;;;;0.50;0.20;;;20.70;52.90;;;;;;4975889;28;20440;-17
2022/05/13 11:46:01;;;;;;;0.70;0.40;;;20.70;52.90;;;;;;4975421;28;20051;-17
2022/05/13 11:48:40;;;;;;;0.38;0.22;;;20.70;52.90;;;;;;4976841;28;20492;-16
2022/05/13 11:51:15;;;;;;;0.57;0.32;;;20.80;52.90;;;;;;4972667;28;20039;-18
2022/05/13 11:53:41;;;;;;;0.35;0.20;;;20.80;53.00;;;;;;4973095;28;20058;-17
2022/05/13 11:56:13;;;;;;;0.68;0.45;;;20.80;53.00;;;;;;4626680;28;10000211;-16
2022/05/13 11:59:03;;;;;;;0.30;0.20;;;20.80;53.50;;;;;;4968017;28;20081;-16
2022/05/13 12:01:34;;;;;;;0.50;0.30;;;20.80;53.00;;;;;;4963337;28;20632;-17
2022/05/13 12:04:12;;;;;;;0.88;0.22;;;20.80;52.90;;;;;;4977162;28;20046;-16
2022/05/13 12:06:50;;;;;;;0.20;0.20;;;20.90;53.60;;;;;;4970044;28;20070;-16
2022/05/13 12:09:35;;;;;;;0.65;0.30;;;21.00;53.00;;;;;;4968621;28;20061;-17
2022/05/13 12:12:21;;;;;;;0.30;0.17;;;20.90;52.90;;;;;;4955669;28;20043;-16
2022/05/13 12:15:05;;;;;;;0.80;0.40;;;21.00;52.90;;;;;;4971929;28;20086;-17
2022/05/13 12:17:41;;;;;;;0.82;0.20;;;21.00;52.80;;;;;;4971526;28;20416;-16
2022/05/13 12:20:45;;;;;;;0.70;0.32;;;21.00;52.90;;;;;;4971755;28;20047;-16
2022/05/13 12:23:47;;;;;;;0.40;0.20;;;21.00;53.10;;;;;;4971785;28;20051;-17
2022/05/13 12:26:13;;;;;;;0.50;0.30;;;21.00;53.10;;;;;;4970871;28;20617;-14
2022/05/13 12:28:55;;;;;;;0.70;0.50;;;21.00;53.10;;;;;;4971582;28;20109;-17
2022/05/13 12:31:29;;;;;;;0.57;0.40;;;21.10;53.10;;;;;;4974096;28;20043;-17
2022/05/13 12:39:54;;;;;;;0.80;0.63;;;21.10;53.40;;;;;;4975994;28;20070;-16
2022/05/13 12:42:41;;;;;;;1.00;0.40;;;21.20;53.30;;;;;;4967537;28;20105;-17
2022/05/13 12:45:20;;;;;;;2.78;0.30;;;21.20;53.40;;;;;;4957050;28;20054;-17
2022/05/13 12:48:03;;;;;;;0.55;0.30;;;21.20;53.50;;;;;;4963245;28;20093;-17
2022/05/13 12:50:48;;;;;;;0.57;0.30;;;21.10;53.70;;;;;;4975948;28;20794;-17
2022/05/13 12:53:35;;;;;;;0.40;0.32;;;21.10;53.60;;;;;;4968051;28;20047;-17
2022/05/13 12:56:12;;;;;;;0.50;0.30;;;21.20;53.70;;;;;;4972290;28;20047;-16
2022/05/13 12:58:39;;;;;;;1.20;0.30;;;21.20;53.70;;;;;;4975164;28;20051;-16
2022/05/13 13:01:05;;;;;;;0.63;0.30;;;21.20;53.70;;;;;;4972258;28;20058;-17
2022/05/13 13:03:38;;;;;;;0.75;0.57;;;21.20;53.70;;;;;;4975113;28;20117;-16
2022/05/13 13:06:11;;;;;;;0.60;0.40;;;21.30;53.70;;;;;;4977507;28;20063;-16
2022/05/13 13:08:41;;;;;;;0.60;0.33;;;21.30;53.60;;;;;;4978484;28;20042;-16
2022/05/13 13:11:24;;;;;;;0.40;0.40;;;21.30;53.60;;;;;;4976846;28;20045;-17
2022/05/13 13:13:52;;;;;;;0.52;0.45;;;21.30;54.20;;;;;;4976631;28;20046;-17
2022/05/13 13:16:37;;;;;;;0.50;0.30;;;21.30;53.60;;;;;;4975686;28;20117;-18
2022/05/13 13:19:29;;;;;;;0.55;0.30;;;21.40;53.40;;;;;;4960661;28;20101;-17
2022/05/13 13:22:18;;;;;;;1.60;0.32;;;21.40;53.60;;;;;;4959134;28;20233;-17
2022/05/13 13:24:44;;;;;;;0.28;0.28;;;21.40;53.60;;;;;;4977073;28;20046;-19
2022/05/13 13:27:15;;;;;;;0.50;0.30;;;21.40;53.60;;;;;;4977599;28;20042;-17
2022/05/13 13:29:41;;;;;;;0.30;0.30;;;21.50;53.60;;;;;;4981805;28;20059;-17
2022/05/13 13:32:12;;;;;;;0.35;0.20;;;21.40;53.60;;;;;;4654029;28;9999943;-17
2022/05/13 13:34:47;;;;;;;0.85;0.28;;;21.40;53.50;;;;;;4969233;28;20842;-17
2022/05/13 13:37:13;;;;;;;0.93;0.47;;;21.50;53.90;;;;;;4974489;28;20548;-17
2022/05/13 13:39:39;;;;;;;0.30;0.30;;;21.50;53.50;;;;;;4974902;28;20646;-17
2022/05/13 13:42:09;;;;;;;1.88;0.57;;;21.50;53.50;;;;;;4974665;28;20058;-16